Time;durP1;ratioP1;P1;durP2;ratioP2;P2;SDS_P1;SDS_P2;PMS_P1;PMS_P2;Temp;Humidity;BMP_temperature;BMP_pressure;BME280_temperature;BME280_humidity;BME280_pressure;Samples;Min_cycle;Max_cycle;Signal;HPM_P1;HPM_P2
2023/08/31 00:03:19;;;;;;;2.43;1.40;;;17.90;93.70;;;;;;10355442;28;20392;-63
2023/08/31 00:08:22;;;;;;;2.80;2.00;;;17.90;93.70;;;;;;10364407;28;20471;-63
2023/08/31 00:13:22;;;;;;;2.40;1.42;;;17.90;93.70;;;;;;10363219;28;20413;-63
2023/08/31 00:18:24;;;;;;;2.43;1.50;;;17.90;93.80;;;;;;10363773;28;20516;-64
2023/08/31 00:23:25;;;;;;;2.80;1.60;;;17.90;93.80;;;;;;10363339;28;20436;-63
2023/08/31 00:28:27;;;;;;;3.80;1.67;;;17.90;93.80;;;;;;10350598;28;20488;-63
2023/08/31 00:33:27;;;;;;;3.25;1.52;;;17.80;93.80;;;;;;10360093;28;20403;-61
2023/08/31 00:38:28;;;;;;;3.30;1.53;;;17.80;93.90;;;;;;10364139;28;20412;-63
2023/08/31 00:43:29;;;;;;;2.15;1.52;;;17.80;93.90;;;;;;10359814;28;20404;-64
2023/08/31 00:48:30;;;;;;;2.92;1.70;;;17.80;93.90;;;;;;10360159;28;20427;-64
2023/08/31 00:53:31;;;;;;;2.37;1.70;;;17.80;93.90;;;;;;10359909;28;20563;-62
2023/08/31 00:58:32;;;;;;;3.00;1.40;;;17.80;93.90;;;;;;10361323;28;20503;-63
2023/08/31 01:03:42;;;;;;;2.33;1.40;;;17.80;93.90;;;;;;10362111;28;20401;-64
2023/08/31 01:08:57;;;;;;;2.45;1.52;;;17.70;93.80;;;;;;10358063;28;20401;-63
2023/08/31 01:14:22;;;;;;;2.40;1.50;;;17.70;93.90;;;;;;10357534;28;22076;-63
2023/08/31 01:19:48;;;;;;;1.92;1.40;;;17.70;93.90;;;;;;10356959;28;20416;-63
2023/08/31 01:24:49;;;;;;;2.72;1.60;;;17.70;93.90;;;;;;10358729;28;20412;-63
2023/08/31 01:29:51;;;;;;;3.07;1.40;;;17.70;94.00;;;;;;10358187;28;20408;-63
2023/08/31 01:34:52;;;;;;;3.20;1.50;;;17.70;94.00;;;;;;10359472;28;20416;-64
2023/08/31 01:39:57;;;;;;;2.35;1.60;;;17.70;94.00;;;;;;10356920;28;20412;-64
2023/08/31 01:44:59;;;;;;;2.20;1.48;;;17.60;94.00;;;;;;10356457;28;20496;-61
2023/08/31 01:50:00;;;;;;;2.13;1.38;;;17.70;94.00;;;;;;10357105;28;20408;-64
2023/08/31 01:55:01;;;;;;;2.80;1.50;;;17.60;93.90;;;;;;10353564;28;20927;-64
2023/08/31 02:00:03;;;;;;;2.43;1.47;;;17.60;93.90;;;;;;10355598;28;20439;-64
2023/08/31 02:05:04;;;;;;;1.53;1.30;;;17.60;93.90;;;;;;10355876;28;20401;-62
2023/08/31 02:10:06;;;;;;;1.90;1.30;;;17.60;93.90;;;;;;10355124;28;20397;-63
2023/08/31 02:15:07;;;;;;;2.45;1.60;;;17.60;93.90;;;;;;10356319;28;20404;-64
2023/08/31 02:20:08;;;;;;;1.75;1.30;;;17.60;93.80;;;;;;10357309;28;20419;-63
2023/08/31 02:25:09;;;;;;;2.27;1.20;;;17.50;93.80;;;;;;10366822;28;20405;-64
2023/08/31 02:30:10;;;;;;;2.20;1.20;;;17.50;93.70;;;;;;10361912;28;20776;-64
2023/08/31 02:35:12;;;;;;;1.83;1.30;;;17.50;93.70;;;;;;10357147;28;20455;-64
2023/08/31 02:40:12;;;;;;;1.90;1.10;;;17.50;93.70;;;;;;10360097;28;20420;-64
2023/08/31 02:45:16;;;;;;;2.10;1.20;;;17.50;93.70;;;;;;10359172;28;20778;-63
2023/08/31 02:50:16;;;;;;;2.58;1.30;;;17.40;93.60;;;;;;10359565;28;20908;-64
2023/08/31 02:55:17;;;;;;;2.63;1.30;;;17.40;93.60;;;;;;10355955;28;20657;-63
2023/08/31 03:00:21;;;;;;;2.00;1.30;;;17.40;93.60;;;;;;10351108;28;20412;-64
2023/08/31 03:05:22;;;;;;;1.60;1.30;;;17.40;93.60;;;;;;10366833;28;20428;-64
2023/08/31 03:10:22;;;;;;;2.00;1.30;;;17.40;93.60;;;;;;10348685;28;20495;-64
2023/08/31 03:15:23;;;;;;;2.27;1.30;;;17.40;93.60;;;;;;10367967;28;20419;-62
2023/08/31 03:20:24;;;;;;;1.60;1.40;;;17.40;93.60;;;;;;10366929;28;20856;-64
2023/08/31 03:25:24;;;;;;;3.33;1.50;;;17.40;93.60;;;;;;10371640;28;20399;-63
2023/08/31 03:30:25;;;;;;;2.30;1.40;;;17.30;93.60;;;;;;10363948;28;20919;-64
2023/08/31 03:35:29;;;;;;;2.13;1.50;;;17.30;93.60;;;;;;10374979;28;20391;-62
2023/08/31 03:40:31;;;;;;;1.83;1.30;;;17.30;93.60;;;;;;10369535;28;20495;-64
2023/08/31 03:45:31;;;;;;;1.83;1.40;;;17.30;93.60;;;;;;10368509;28;20412;-63
2023/08/31 03:50:32;;;;;;;1.92;1.33;;;17.30;93.60;;;;;;10369314;28;20788;-64
2023/08/31 03:55:33;;;;;;;1.83;1.40;;;17.30;93.60;;;;;;10363515;28;20406;-63
2023/08/31 04:00:33;;;;;;;1.90;1.40;;;17.20;93.60;;;;;;10362316;28;20843;-62
2023/08/31 04:05:35;;;;;;;2.13;1.33;;;17.30;93.60;;;;;;10367427;28;20445;-62
2023/08/31 04:10:36;;;;;;;1.80;1.20;;;17.20;93.60;;;;;;10348388;28;20401;-63
2023/08/31 04:15:37;;;;;;;1.47;1.37;;;17.20;93.60;;;;;;10359876;28;20399;-63
2023/08/31 04:20:37;;;;;;;1.87;1.30;;;17.20;93.60;;;;;;10367667;28;20419;-64
2023/08/31 04:25:38;;;;;;;1.80;1.30;;;17.20;93.60;;;;;;10365475;28;20410;-63
2023/08/31 04:30:41;;;;;;;1.80;1.40;;;17.20;93.60;;;;;;10362182;28;20420;-63
2023/08/31 04:35:42;;;;;;;2.38;1.50;;;17.20;93.90;;;;;;10366227;28;20486;-64
2023/08/31 04:40:43;;;;;;;1.77;1.30;;;17.20;93.60;;;;;;10368214;28;20438;-63
2023/08/31 04:45:44;;;;;;;2.42;1.50;;;17.20;93.60;;;;;;10365293;28;20404;-63
2023/08/31 04:50:44;;;;;;;1.48;1.30;;;17.10;93.60;;;;;;10350769;28;20498;-62
2023/08/31 04:55:45;;;;;;;1.43;1.33;;;17.10;93.60;;;;;;10363889;28;20475;-63
2023/08/31 05:00:46;;;;;;;1.60;1.30;;;17.10;93.60;;;;;;10362291;28;20422;-62
2023/08/31 05:05:47;;;;;;;2.55;1.50;;;17.10;93.60;;;;;;10364839;28;20413;-63
2023/08/31 05:10:48;;;;;;;2.15;1.40;;;17.10;93.60;;;;;;10353898;28;20751;-63
2023/08/31 05:15:48;;;;;;;1.80;1.43;;;17.10;93.60;;;;;;10367115;28;20918;-63
2023/08/31 05:20:49;;;;;;;2.50;1.50;;;17.10;93.60;;;;;;10361477;28;20431;-63
2023/08/31 05:25:49;;;;;;;2.47;1.60;;;17.10;93.60;;;;;;10364615;28;20946;-63
2023/08/31 05:30:52;;;;;;;2.23;1.40;;;17.10;93.60;;;;;;10362517;28;20680;-63
2023/08/31 05:35:53;;;;;;;2.05;1.50;;;17.10;93.70;;;;;;10361986;28;20432;-64
2023/08/31 05:40:53;;;;;;;1.77;1.67;;;17.10;93.60;;;;;;10361808;28;20423;-63
2023/08/31 05:45:54;;;;;;;1.83;1.30;;;17.10;93.60;;;;;;10360575;28;20404;-62
2023/08/31 05:50:55;;;;;;;2.60;1.70;;;17.10;93.70;;;;;;10361921;28;20766;-63
2023/08/31 05:56:04;;;;;;;2.38;1.60;;;17.10;93.60;;;;;;10361717;28;20411;-63
2023/08/31 06:01:05;;;;;;;2.50;1.60;;;17.10;93.70;;;;;;10358614;28;20421;-62
2023/08/31 06:06:07;;;;;;;1.50;1.40;;;17.10;93.60;;;;;;10346124;28;20492;-63
2023/08/31 06:11:07;;;;;;;2.00;1.60;;;17.20;93.70;;;;;;10357853;28;20427;-64
2023/08/31 06:16:08;;;;;;;1.80;1.50;;;17.20;93.70;;;;;;10358292;28;20455;-64
2023/08/31 06:21:09;;;;;;;2.40;1.75;;;17.20;93.70;;;;;;10359397;28;20409;-64
2023/08/31 06:26:10;;;;;;;2.67;1.60;;;17.30;93.80;;;;;;10359144;28;20910;-63
2023/08/31 06:31:10;;;;;;;1.90;1.65;;;17.10;93.80;;;;;;10360525;28;20412;-64
2023/08/31 06:36:11;;;;;;;2.90;1.80;;;17.10;93.80;;;;;;10356158;28;20432;-62
2023/08/31 06:41:12;;;;;;;2.20;1.60;;;17.20;93.80;;;;;;10358089;28;20503;-63
2023/08/31 06:46:12;;;;;;;2.33;1.70;;;17.20;93.80;;;;;;10349176;28;20396;-64
2023/08/31 06:51:13;;;;;;;2.33;1.70;;;17.20;93.80;;;;;;10364170;28;20462;-63
2023/08/31 06:56:14;;;;;;;2.40;1.60;;;17.20;93.80;;;;;;10365711;28;20487;-63
2023/08/31 07:01:14;;;;;;;2.83;1.90;;;17.20;93.90;;;;;;10349576;28;20788;-63
2023/08/31 07:06:15;;;;;;;2.05;1.73;;;17.20;93.90;;;;;;10365603;28;20407;-62
2023/08/31 07:11:17;;;;;;;2.45;1.83;;;17.20;93.80;;;;;;10353929;28;20491;-63
2023/08/31 07:16:18;;;;;;;2.13;1.75;;;17.20;93.80;;;;;;10366038;28;20495;-63
2023/08/31 07:21:19;;;;;;;2.97;1.90;;;17.30;93.90;;;;;;10349109;28;20827;-63
2023/08/31 07:26:20;;;;;;;2.08;1.77;;;17.30;93.90;;;;;;10364407;28;20399;-64
2023/08/31 07:31:21;;;;;;;1.95;1.75;;;17.30;93.90;;;;;;10366695;28;20603;-64
2023/08/31 07:36:22;;;;;;;2.10;1.80;;;17.30;94.00;;;;;;10364724;28;20401;-63
2023/08/31 07:41:22;;;;;;;2.87;1.67;;;17.40;94.00;;;;;;10362557;28;20578;-64
2023/08/31 07:46:23;;;;;;;2.55;1.58;;;17.40;94.00;;;;;;10359752;28;20408;-64
2023/08/31 07:51:25;;;;;;;2.40;1.48;;;17.50;94.00;;;;;;10363937;28;20523;-64
2023/08/31 07:56:26;;;;;;;1.88;1.67;;;17.60;94.00;;;;;;10365386;28;20504;-63
2023/08/31 08:01:27;;;;;;;2.23;1.63;;;17.60;93.90;;;;;;10363504;28;20934;-65
2023/08/31 08:06:27;;;;;;;2.43;1.77;;;17.60;93.90;;;;;;10364385;28;20416;-64
2023/08/31 08:11:28;;;;;;;2.60;1.83;;;17.60;93.90;;;;;;10364108;28;20858;-64
2023/08/31 08:16:29;;;;;;;2.63;1.55;;;17.60;93.90;;;;;;10359560;28;20408;-63
2023/08/31 08:21:29;;;;;;;1.77;1.50;;;17.70;93.90;;;;;;10355810;28;20742;-64
2023/08/31 08:26:30;;;;;;;2.40;1.70;;;17.70;94.00;;;;;;10369795;28;20411;-63
2023/08/31 08:31:31;;;;;;;2.37;1.60;;;18.10;93.90;;;;;;10365986;28;20409;-64
2023/08/31 08:36:31;;;;;;;2.00;1.80;;;17.70;93.90;;;;;;10365649;28;20404;-64
2023/08/31 08:41:33;;;;;;;2.80;2.00;;;17.80;93.90;;;;;;10368314;28;20427;-63
2023/08/31 08:46:34;;;;;;;2.10;1.70;;;17.80;93.90;;;;;;10366279;28;20417;-64
2023/08/31 08:51:35;;;;;;;2.70;1.80;;;17.80;93.90;;;;;;10369178;28;20420;-63
2023/08/31 08:56:36;;;;;;;2.07;1.80;;;17.80;93.90;;;;;;10362133;28;20459;-65
2023/08/31 09:01:37;;;;;;;2.13;1.80;;;17.80;94.00;;;;;;10364269;28;20407;-64
2023/08/31 09:06:38;;;;;;;2.97;1.90;;;17.90;94.00;;;;;;10363684;28;20951;-64
2023/08/31 09:11:39;;;;;;;2.28;1.75;;;17.90;94.30;;;;;;10364814;28;20443;-64
2023/08/31 09:16:44;;;;;;;2.17;1.60;;;17.90;94.00;;;;;;10363881;28;20409;-63
2023/08/31 09:21:47;;;;;;;1.93;1.77;;;17.90;94.00;;;;;;10361450;28;20935;-64
2023/08/31 09:26:52;;;;;;;2.20;1.70;;;18.00;94.00;;;;;;10365239;28;20405;-65
2023/08/31 09:31:53;;;;;;;2.55;1.70;;;18.00;94.00;;;;;;10363124;28;20431;-64
2023/08/31 09:37:06;;;;;;;2.70;1.80;;;18.00;93.90;;;;;;10562612;27;20451;-64
2023/08/31 09:42:06;;;;;;;2.00;1.70;;;18.10;94.00;;;;;;10525784;28;20406;-64
2023/08/31 09:47:08;;;;;;;3.50;1.20;;;18.10;93.90;;;;;;10515638;28;20429;-65
2023/08/31 09:52:09;;;;;;;3.75;1.15;;;18.10;94.60;;;;;;10518938;28;20410;-63
2023/08/31 09:57:12;;;;;;;3.77;1.03;;;18.20;95.20;;;;;;10529070;28;20410;-65
2023/08/31 10:02:15;;;;;;;3.47;1.20;;;18.10;95.20;;;;;;10527912;28;20452;-65
2023/08/31 10:07:16;;;;;;;2.38;1.20;;;18.10;95.30;;;;;;10520592;28;20402;-65
2023/08/31 10:12:19;;;;;;;2.08;1.00;;;18.00;95.20;;;;;;10535132;28;20798;-65
2023/08/31 10:17:21;;;;;;;2.97;1.05;;;18.10;95.30;;;;;;10527826;28;20759;-71
2023/08/31 10:22:22;;;;;;;3.17;1.10;;;18.10;95.50;;;;;;10523300;28;20406;-66
2023/08/31 10:27:23;;;;;;;2.27;0.93;;;18.20;95.50;;;;;;10516593;28;20992;-65
2023/08/31 10:32:24;;;;;;;2.53;1.20;;;18.20;95.80;;;;;;10517186;28;20411;-65
2023/08/31 10:37:27;;;;;;;2.87;1.10;;;18.30;95.50;;;;;;10512651;28;20860;-65
2023/08/31 10:42:28;;;;;;;2.75;1.00;;;18.40;95.60;;;;;;10523134;28;20399;-65
2023/08/31 10:47:39;;;;;;;3.43;0.83;;;18.40;95.50;;;;;;10494060;28;20415;-65
2023/08/31 10:52:44;;;;;;;1.92;0.90;;;18.50;95.30;;;;;;10501133;28;20962;-65
2023/08/31 10:57:45;;;;;;;2.03;0.83;;;18.60;95.20;;;;;;10494289;28;20453;-65
2023/08/31 11:02:50;;;;;;;2.25;1.17;;;18.70;95.30;;;;;;10498556;28;20932;-66
2023/08/31 11:07:56;;;;;;;3.55;0.90;;;18.70;94.90;;;;;;10500961;28;20907;-66
2023/08/31 11:12:57;;;;;;;2.60;0.80;;;18.60;94.80;;;;;;10498158;28;20782;-66
2023/08/31 11:17:58;;;;;;;2.00;1.10;;;18.60;95.10;;;;;;10494245;28;20433;-65
2023/08/31 11:22:59;;;;;;;2.95;1.10;;;18.40;95.10;;;;;;10498066;28;20463;-66
2023/08/31 11:28:05;;;;;;;2.47;1.07;;;18.40;95.20;;;;;;10501987;28;20504;-65
2023/08/31 11:33:07;;;;;;;2.67;1.10;;;18.50;95.40;;;;;;10493738;28;20852;-66
2023/08/31 11:38:08;;;;;;;3.88;1.20;;;18.40;95.30;;;;;;10495527;28;20885;-66
2023/08/31 11:43:09;;;;;;;3.78;1.10;;;18.40;95.20;;;;;;10492188;28;20399;-65
2023/08/31 11:48:10;;;;;;;4.53;1.10;;;18.50;95.00;;;;;;10489696;28;20426;-70
2023/08/31 11:53:10;;;;;;;4.75;1.20;;;18.50;95.00;;;;;;10490124;28;21167;-66
2023/08/31 11:58:11;;;;;;;2.38;0.90;;;18.60;95.00;;;;;;10492162;28;20413;-65
2023/08/31 12:03:12;;;;;;;3.10;1.00;;;18.70;95.20;;;;;;10494453;28;20414;-65
2023/08/31 12:08:13;;;;;;;2.80;1.00;;;18.80;95.50;;;;;;10490659;28;20395;-69
2023/08/31 12:13:14;;;;;;;1.60;0.90;;;18.70;95.80;;;;;;10493310;28;20906;-64
2023/08/31 12:18:15;;;;;;;2.53;1.00;;;18.60;95.60;;;;;;10490536;28;20482;-64
2023/08/31 12:23:15;;;;;;;3.17;1.15;;;18.60;95.70;;;;;;10493073;28;20402;-65
2023/08/31 12:28:17;;;;;;;4.45;1.33;;;18.60;95.70;;;;;;10483773;28;20498;-64
2023/08/31 12:33:19;;;;;;;3.60;1.10;;;18.60;95.70;;;;;;10494106;28;20435;-64
2023/08/31 12:38:20;;;;;;;2.17;0.97;;;18.60;95.70;;;;;;10492444;28;20400;-65
2023/08/31 12:43:20;;;;;;;2.97;1.30;;;18.70;95.60;;;;;;10489805;28;20412;-64
2023/08/31 12:48:21;;;;;;;2.72;1.20;;;18.80;95.60;;;;;;10486386;28;20434;-65
2023/08/31 12:53:23;;;;;;;2.70;1.05;;;18.80;95.70;;;;;;10482634;28;20468;-65
2023/08/31 12:58:23;;;;;;;3.17;1.13;;;18.80;95.90;;;;;;10478754;28;20412;-65
2023/08/31 13:03:24;;;;;;;3.07;1.00;;;18.90;95.80;;;;;;10489292;28;20407;-65
2023/08/31 13:08:25;;;;;;;2.95;1.02;;;18.90;96.00;;;;;;10484774;28;20491;-65
2023/08/31 13:13:26;;;;;;;2.63;1.25;;;18.90;96.00;;;;;;10490738;28;21091;-64
2023/08/31 13:18:26;;;;;;;2.50;0.80;;;19.00;96.10;;;;;;10486348;28;20403;-67
2023/08/31 13:23:27;;;;;;;5.77;0.90;;;19.10;97.00;;;;;;10488376;28;20411;-66
2023/08/31 13:28:28;;;;;;;2.40;0.80;;;19.40;95.70;;;;;;10490265;28;20502;-67
2023/08/31 13:33:29;;;;;;;3.43;1.17;;;19.70;96.40;;;;;;10484027;28;20408;-66
2023/08/31 13:38:29;;;;;;;3.65;1.00;;;19.70;95.00;;;;;;10487781;28;20862;-67
2023/08/31 13:43:30;;;;;;;4.07;1.20;;;19.80;94.20;;;;;;10484591;28;20427;-66
2023/08/31 13:48:30;;;;;;;3.43;0.90;;;19.90;94.70;;;;;;10484758;28;20445;-67
2023/08/31 13:53:31;;;;;;;5.67;1.10;;;20.00;94.90;;;;;;10489067;28;20423;-67
2023/08/31 13:58:32;;;;;;;3.43;0.90;;;19.70;94.30;;;;;;10485407;28;20794;-67
2023/08/31 14:03:32;;;;;;;5.67;1.33;;;19.70;94.50;;;;;;10487711;28;20477;-67
2023/08/31 14:08:33;;;;;;;3.90;1.33;;;19.70;94.20;;;;;;10483135;28;20403;-66
2023/08/31 14:13:34;;;;;;;4.30;1.17;;;19.70;94.00;;;;;;10477845;28;20424;-66
2023/08/31 14:18:34;;;;;;;4.68;1.10;;;19.70;94.10;;;;;;10482797;28;20422;-65
2023/08/31 14:23:35;;;;;;;4.18;1.10;;;19.80;94.20;;;;;;10491595;28;20414;-66
2023/08/31 14:28:36;;;;;;;3.38;1.05;;;19.90;93.50;;;;;;10485280;28;20414;-67
2023/08/31 14:33:36;;;;;;;2.20;0.80;;;20.10;93.70;;;;;;10490045;28;20431;-66
2023/08/31 14:38:37;;;;;;;4.72;1.02;;;20.30;92.70;;;;;;10482249;28;20399;-63
2023/08/31 14:43:38;;;;;;;4.23;0.97;;;20.40;92.40;;;;;;10487478;28;20426;-64
2023/08/31 14:48:38;;;;;;;3.80;1.10;;;20.50;92.70;;;;;;10486306;28;21090;-66
2023/08/31 14:53:46;;;;;;;5.57;1.13;;;20.80;92.70;;;;;;10489867;28;20407;-66
2023/08/31 14:58:47;;;;;;;4.65;0.93;;;20.70;92.10;;;;;;10484021;28;20925;-67
2023/08/31 15:03:47;;;;;;;3.90;0.98;;;20.70;92.30;;;;;;10493175;28;20409;-67
2023/08/31 15:08:48;;;;;;;2.88;1.00;;;20.60;91.40;;;;;;10487760;28;20868;-66
2023/08/31 15:13:48;;;;;;;3.15;1.10;;;20.60;91.50;;;;;;10493851;28;20426;-66
2023/08/31 15:18:49;;;;;;;4.70;1.00;;;20.50;91.50;;;;;;10491332;28;20476;-65
2023/08/31 15:23:50;;;;;;;3.05;1.10;;;20.50;91.10;;;;;;10489423;28;20463;-66
2023/08/31 15:28:51;;;;;;;3.40;0.95;;;20.80;90.80;;;;;;10490086;28;20402;-67
2023/08/31 15:33:53;;;;;;;5.22;1.10;;;20.80;90.90;;;;;;10488155;28;20402;-65
2023/08/31 15:38:53;;;;;;;3.35;0.90;;;20.70;90.90;;;;;;10494511;28;20390;-68
2023/08/31 15:43:54;;;;;;;5.10;1.10;;;20.60;91.00;;;;;;10482492;28;20409;-67
2023/08/31 15:48:55;;;;;;;9.38;1.05;;;20.40;91.40;;;;;;10488058;28;20474;-64
2023/08/31 15:53:55;;;;;;;13.50;1.42;;;20.30;91.20;;;;;;10490316;28;20439;-64
2023/08/31 15:58:58;;;;;;;6.78;1.40;;;20.30;91.70;;;;;;10486455;28;20404;-65
2023/08/31 16:03:58;;;;;;;8.07;1.30;;;20.30;91.90;;;;;;10482908;28;20407;-62
2023/08/31 16:08:59;;;;;;;7.75;1.45;;;20.40;92.20;;;;;;10486460;28;20384;-65
2023/08/31 16:14:00;;;;;;;7.80;1.50;;;20.40;92.40;;;;;;10494761;28;20420;-64
2023/08/31 16:19:01;;;;;;;6.73;1.30;;;20.40;92.40;;;;;;10492954;28;20423;-65
2023/08/31 16:24:01;;;;;;;9.47;1.80;;;20.40;92.50;;;;;;10501854;28;20400;-63
2023/08/31 16:29:03;;;;;;;6.57;1.63;;;20.40;92.60;;;;;;10484740;28;20387;-65
2023/08/31 16:34:05;;;;;;;5.20;1.30;;;20.40;92.60;;;;;;10485667;28;20419;-63
2023/08/31 16:39:07;;;;;;;5.68;1.23;;;20.40;92.80;;;;;;10490388;28;20399;-62
2023/08/31 16:44:07;;;;;;;5.72;1.48;;;20.40;92.80;;;;;;10483102;28;20407;-65
2023/08/31 16:49:08;;;;;;;5.20;1.10;;;20.40;92.80;;;;;;10485359;28;20411;-65
2023/08/31 16:54:09;;;;;;;5.00;1.30;;;20.30;92.70;;;;;;10492261;28;20410;-65
2023/08/31 16:59:10;;;;;;;3.73;1.30;;;20.40;92.90;;;;;;10485088;28;20414;-66
2023/08/31 17:04:10;;;;;;;4.53;1.27;;;20.30;93.10;;;;;;10489606;28;20418;-63
2023/08/31 17:09:11;;;;;;;3.78;1.40;;;20.30;93.10;;;;;;10488236;28;20398;-60
2023/08/31 17:14:14;;;;;;;4.05;1.38;;;20.20;93.20;;;;;;10483234;28;20418;-63
2023/08/31 17:19:15;;;;;;;3.50;1.10;;;20.20;93.20;;;;;;10497158;28;20508;-63
2023/08/31 17:24:15;;;;;;;3.20;1.10;;;20.20;93.30;;;;;;10491933;28;20504;-63
2023/08/31 17:29:16;;;;;;;4.90;1.40;;;20.10;93.40;;;;;;10492493;28;20460;-64
2023/08/31 17:34:19;;;;;;;2.40;1.17;;;20.10;93.30;;;;;;10493188;28;20461;-64
2023/08/31 17:39:19;;;;;;;3.50;1.40;;;20.20;93.40;;;;;;10485834;28;20408;-63
2023/08/31 17:44:24;;;;;;;5.10;1.30;;;20.10;93.50;;;;;;10480825;28;20405;-62
2023/08/31 17:49:25;;;;;;;3.45;1.40;;;20.10;93.50;;;;;;10491644;28;20414;-63
2023/08/31 17:54:25;;;;;;;2.22;1.10;;;20.10;93.50;;;;;;10488266;28;21033;-64
2023/08/31 17:59:27;;;;;;;2.43;1.20;;;20.00;93.50;;;;;;10476386;28;20690;-64
2023/08/31 18:04:27;;;;;;;3.42;1.40;;;20.00;93.50;;;;;;10488019;28;20887;-63
2023/08/31 18:09:30;;;;;;;3.58;1.52;;;20.00;93.60;;;;;;10491280;28;20415;-62
2023/08/31 18:14:33;;;;;;;2.35;1.30;;;20.00;93.70;;;;;;10491996;28;20438;-64
2023/08/31 18:19:34;;;;;;;3.85;1.30;;;20.10;93.70;;;;;;10502381;28;20395;-64
2023/08/31 18:24:37;;;;;;;3.58;1.40;;;20.00;93.70;;;;;;10494970;28;20434;-63
2023/08/31 18:29:37;;;;;;;2.97;1.27;;;19.90;93.70;;;;;;10503456;28;20449;-63
2023/08/31 18:34:39;;;;;;;2.70;1.30;;;19.90;93.70;;;;;;10494010;28;20481;-63
2023/08/31 18:39:40;;;;;;;2.33;1.30;;;19.80;93.70;;;;;;10488675;28;20487;-62
2023/08/31 18:44:40;;;;;;;2.28;1.30;;;19.70;93.60;;;;;;10482203;28;20403;-61
2023/08/31 18:49:41;;;;;;;3.80;1.33;;;19.80;93.70;;;;;;10484602;28;20912;-64
2023/08/31 18:54:42;;;;;;;3.07;1.40;;;19.70;93.90;;;;;;10488242;28;20413;-63
2023/08/31 18:59:42;;;;;;;3.37;1.57;;;19.70;93.70;;;;;;10482802;28;20435;-63
2023/08/31 19:04:43;;;;;;;2.60;1.40;;;19.60;93.70;;;;;;10488307;28;20495;-62
2023/08/31 19:09:44;;;;;;;2.80;1.30;;;19.60;93.70;;;;;;10482915;28;20398;-63
2023/08/31 19:14:45;;;;;;;2.47;1.30;;;19.60;93.60;;;;;;10490886;28;20474;-63
2023/08/31 19:19:45;;;;;;;4.00;1.25;;;19.50;93.60;;;;;;10490537;28;20399;-64
2023/08/31 19:24:46;;;;;;;2.07;1.40;;;19.50;93.60;;;;;;10482194;28;20486;-63
2023/08/31 19:29:47;;;;;;;3.27;1.40;;;19.50;93.50;;;;;;10475522;28;20398;-63
2023/08/31 19:34:47;;;;;;;4.10;1.50;;;19.40;93.50;;;;;;10482962;28;20407;-64
2023/08/31 19:39:48;;;;;;;2.37;1.30;;;19.40;93.50;;;;;;10490424;28;20395;-64
2023/08/31 19:44:48;;;;;;;3.97;1.40;;;19.40;93.40;;;;;;10482750;28;20405;-61
2023/08/31 19:49:52;;;;;;;3.83;1.60;;;19.30;93.40;;;;;;10485610;28;20386;-64
2023/08/31 19:54:53;;;;;;;3.80;1.60;;;19.30;93.30;;;;;;10486360;28;20418;-63
2023/08/31 19:59:53;;;;;;;3.03;1.53;;;19.30;93.30;;;;;;10480534;28;20403;-62
2023/08/31 20:04:55;;;;;;;2.30;1.50;;;19.20;93.30;;;;;;10487063;28;20403;-63
2023/08/31 20:09:55;;;;;;;2.60;1.63;;;19.20;93.30;;;;;;10484304;28;20425;-64
2023/08/31 20:14:56;;;;;;;4.83;1.80;;;19.20;93.20;;;;;;10486216;28;20394;-62
2023/08/31 20:19:57;;;;;;;3.83;1.70;;;19.20;93.20;;;;;;10483550;28;20474;-64
2023/08/31 20:24:57;;;;;;;3.20;1.50;;;19.10;93.10;;;;;;10486734;28;20416;-64
2023/08/31 20:29:58;;;;;;;2.45;1.50;;;19.10;93.10;;;;;;10485597;28;20489;-63
2023/08/31 20:34:58;;;;;;;3.70;1.70;;;19.10;93.10;;;;;;10485061;28;20488;-63
2023/08/31 20:39:59;;;;;;;3.00;1.43;;;19.00;93.00;;;;;;10485685;28;21007;-61
2023/08/31 20:45:01;;;;;;;3.67;1.60;;;19.00;93.00;;;;;;10480415;28;20406;-64
2023/08/31 20:50:04;;;;;;;2.83;1.60;;;19.00;93.00;;;;;;10486986;28;20405;-62
2023/08/31 20:55:08;;;;;;;2.70;1.52;;;18.90;93.00;;;;;;10479840;28;20404;-64
2023/08/31 21:00:10;;;;;;;3.17;1.70;;;18.90;93.00;;;;;;10484377;28;20506;-63
2023/08/31 21:05:11;;;;;;;3.30;1.70;;;18.90;93.00;;;;;;10479464;28;20411;-63
2023/08/31 21:10:12;;;;;;;2.53;1.70;;;18.80;92.90;;;;;;10484500;28;20396;-62
2023/08/31 21:15:12;;;;;;;2.88;1.60;;;18.90;92.90;;;;;;10492222;28;20990;-63
2023/08/31 21:20:13;;;;;;;4.47;1.60;;;18.80;92.90;;;;;;10481177;28;21018;-62
2023/08/31 21:25:14;;;;;;;3.40;1.70;;;18.80;92.90;;;;;;10480091;28;20488;-63
2023/08/31 21:30:14;;;;;;;2.83;1.73;;;18.80;92.90;;;;;;10481431;28;20418;-63
2023/08/31 21:35:15;;;;;;;2.93;1.70;;;18.70;92.90;;;;;;10483769;28;20418;-63
2023/08/31 21:40:15;;;;;;;3.83;1.90;;;18.70;92.90;;;;;;10482639;28;20391;-64
2023/08/31 21:45:16;;;;;;;2.60;1.70;;;18.70;92.90;;;;;;10475474;28;21027;-62
2023/08/31 21:50:17;;;;;;;3.65;1.70;;;18.70;92.90;;;;;;10487585;28;20463;-64
2023/08/31 21:55:17;;;;;;;2.88;1.88;;;18.60;92.80;;;;;;10475524;28;20463;-63
2023/08/31 22:00:19;;;;;;;3.30;1.90;;;18.60;92.80;;;;;;10481862;28;20779;-63
2023/08/31 22:05:24;;;;;;;3.10;1.88;;;18.60;92.90;;;;;;10487655;28;20413;-62
2023/08/31 22:10:25;;;;;;;3.40;1.80;;;18.60;92.80;;;;;;10479801;28;20392;-64
2023/08/31 22:15:26;;;;;;;2.95;1.70;;;18.60;92.80;;;;;;10484328;28;20459;-63
2023/08/31 22:20:30;;;;;;;3.40;1.80;;;18.50;92.80;;;;;;10487561;28;20447;-62
2023/08/31 22:25:31;;;;;;;3.87;1.80;;;18.60;92.80;;;;;;10481288;28;20909;-63
2023/08/31 22:30:32;;;;;;;4.00;1.80;;;18.50;92.90;;;;;;10488169;28;20406;-63
2023/08/31 22:35:33;;;;;;;3.22;1.88;;;18.50;92.90;;;;;;10484583;28;20410;-63
2023/08/31 22:40:34;;;;;;;4.80;2.17;;;18.50;92.90;;;;;;10484994;28;20415;-64
2023/08/31 22:45:35;;;;;;;3.73;1.83;;;18.40;92.90;;;;;;10488487;28;20873;-63
2023/08/31 22:50:35;;;;;;;3.90;2.10;;;18.40;92.90;;;;;;10491245;28;20771;-63
2023/08/31 22:55:36;;;;;;;2.60;1.97;;;18.40;92.90;;;;;;10485595;28;20415;-64
2023/08/31 23:00:36;;;;;;;3.53;2.20;;;18.40;92.90;;;;;;10484242;28;21048;-63
2023/08/31 23:05:37;;;;;;;4.60;2.00;;;18.40;92.90;;;;;;10485002;28;20486;-62
2023/08/31 23:10:37;;;;;;;4.13;2.38;;;18.40;92.90;;;;;;10476234;28;20826;-62
2023/08/31 23:15:38;;;;;;;3.40;2.35;;;18.30;92.90;;;;;;10481961;28;20414;-62
2023/08/31 23:20:39;;;;;;;3.70;2.20;;;18.30;92.90;;;;;;10483144;28;20407;-64
2023/08/31 23:25:39;;;;;;;3.70;2.27;;;18.30;92.90;;;;;;10480956;28;20392;-63
2023/08/31 23:30:40;;;;;;;4.50;2.60;;;18.30;92.90;;;;;;10486794;28;20744;-62
2023/08/31 23:35:46;;;;;;;3.73;2.50;;;18.20;92.90;;;;;;10480739;28;20952;-63
2023/08/31 23:40:47;;;;;;;3.95;2.80;;;18.30;92.90;;;;;;10485308;28;20396;-63
2023/08/31 23:45:47;;;;;;;4.20;2.63;;;18.30;92.90;;;;;;10478995;28;20405;-63
2023/08/31 23:50:48;;;;;;;4.13;2.60;;;18.20;92.90;;;;;;10484871;28;20401;-62
2023/08/31 23:55:49;;;;;;;3.38;2.60;;;18.20;92.90;;;;;;10480911;28;20781;-63
